createdAt,value
2018-12-24T00:02:13.772Z,12.43
2018-12-24T00:04:42.975Z,13.23
2018-12-24T00:07:12.258Z,14.13
2018-12-24T00:09:41.514Z,12.47
2018-12-24T00:12:10.733Z,11.77
2018-12-24T00:14:39.978Z,13.60
2018-12-24T00:17:09.206Z,12.90
2018-12-24T00:19:38.425Z,13.13
2018-12-24T00:22:07.599Z,12.63
2018-12-24T00:24:36.831Z,13.77
2018-12-24T00:27:06.105Z,14.27
2018-12-24T00:29:35.370Z,13.03
2018-12-24T00:32:05.646Z,13.33
2018-12-24T00:34:34.833Z,14.67
2018-12-24T00:37:04.056Z,14.57
2018-12-24T00:39:33.298Z,14.07
2018-12-24T00:42:02.960Z,13.93
2018-12-24T00:44:32.138Z,14.33
2018-12-24T00:47:01.370Z,14.30
2018-12-24T00:49:30.626Z,13.67
2018-12-24T00:51:59.865Z,12.70
2018-12-24T00:54:29.094Z,13.90
2018-12-24T00:56:58.599Z,13.63
2018-12-24T00:59:27.816Z,13.97
2018-12-24T01:01:57.043Z,14.43
2018-12-24T01:04:26.186Z,13.23
2018-12-24T01:06:55.462Z,13.90
2018-12-24T01:09:24.734Z,13.97
2018-12-24T01:11:54.003Z,14.67
2018-12-24T01:14:23.593Z,13.03
2018-12-24T01:16:52.801Z,13.03
2018-12-24T01:19:25.225Z,12.57
2018-12-24T01:21:53.788Z,13.40
2018-12-24T01:24:23.199Z,12.40
2018-12-24T01:26:52.481Z,12.53
2018-12-24T01:29:21.648Z,12.27
2018-12-24T01:31:50.869Z,11.27
2018-12-24T01:34:20.080Z,11.37
2018-12-24T01:36:49.266Z,11.60
2018-12-24T01:39:18.416Z,11.77
2018-12-24T01:41:47.638Z,11.30
2018-12-24T01:44:16.834Z,11.17
2018-12-24T01:46:46.075Z,10.90
2018-12-24T01:49:15.962Z,11.53
2018-12-24T01:51:45.188Z,11.03
2018-12-24T01:54:14.387Z,10.83
2018-12-24T01:56:43.615Z,11.50
2018-12-24T01:59:12.845Z,10.77
2018-12-24T02:01:42.059Z,10.40
2018-12-24T02:04:11.277Z,9.23
2018-12-24T02:06:40.556Z,10.40
2018-12-24T02:09:09.776Z,10.43
2018-12-24T02:11:39.010Z,10.23
2018-12-24T02:14:08.221Z,10.23
2018-12-24T02:16:37.459Z,10.23
2018-12-24T02:19:06.736Z,10.60
2018-12-24T02:21:35.949Z,9.77
2018-12-24T02:24:05.126Z,9.77
2018-12-24T02:26:34.342Z,9.20
2018-12-24T02:29:03.602Z,10.07
2018-12-24T02:31:32.827Z,9.97
2018-12-24T02:34:02.038Z,8.87
2018-12-24T02:36:31.248Z,9.93
2018-12-24T02:39:17.232Z,8.63
2018-12-24T02:41:53.354Z,9.43
2018-12-24T02:44:22.552Z,8.93
2018-12-24T02:46:51.773Z,9.27
2018-12-24T02:49:21.007Z,9.23
2018-12-24T02:51:50.226Z,9.73
2018-12-24T02:54:19.469Z,9.43
2018-12-24T02:56:48.699Z,9.13
2018-12-24T02:59:17.905Z,9.07
2018-12-24T03:01:47.074Z,8.97
2018-12-24T03:04:16.628Z,8.60
2018-12-24T03:06:45.886Z,8.60
2018-12-24T03:09:15.559Z,8.80
2018-12-24T03:11:44.832Z,9.30
2018-12-24T03:14:14.306Z,8.73
2018-12-24T03:16:43.475Z,9.03
2018-12-24T03:19:12.738Z,8.73
2018-12-24T03:21:42.608Z,8.10
2018-12-24T03:24:11.819Z,8.67
2018-12-24T03:26:41.041Z,7.90
2018-12-24T03:29:10.258Z,8.70
2018-12-24T03:31:39.467Z,8.03
2018-12-24T03:34:08.689Z,7.67
2018-12-24T03:36:37.937Z,7.70
2018-12-24T03:39:07.613Z,7.60
2018-12-24T03:41:36.810Z,6.70
2018-12-24T03:44:06.046Z,7.30
2018-12-24T03:46:35.302Z,6.87
2018-12-24T03:49:04.505Z,7.43
2018-12-24T03:51:33.699Z,6.53
2018-12-24T03:54:02.927Z,7.20
2018-12-24T03:56:32.207Z,6.20
2018-12-24T03:59:01.426Z,6.27
2018-12-24T04:01:30.632Z,6.83
2018-12-24T04:03:59.842Z,6.70
2018-12-24T04:06:29.057Z,6.63
2018-12-24T04:08:58.254Z,6.87
2018-12-24T04:11:27.523Z,6.27
2018-12-24T04:13:56.726Z,6.17
2018-12-24T04:16:25.964Z,5.90
2018-12-24T04:18:55.243Z,6.60
2018-12-24T04:21:24.460Z,6.03
2018-12-24T04:23:53.675Z,6.17
2018-12-24T04:26:22.914Z,5.47
2018-12-24T04:28:52.094Z,5.53
2018-12-24T04:31:21.639Z,5.90
2018-12-24T04:33:50.878Z,5.43
2018-12-24T04:36:20.069Z,5.80
2018-12-24T04:38:49.349Z,5.30
2018-12-24T04:41:18.508Z,5.73
2018-12-24T04:43:47.682Z,5.70
2018-12-24T04:46:16.919Z,5.17
2018-12-24T04:48:46.082Z,5.90
2018-12-24T04:51:15.309Z,5.60
2018-12-24T04:53:44.516Z,5.10
2018-12-24T04:56:13.689Z,5.77
2018-12-24T04:58:42.956Z,4.87
2018-12-24T05:01:12.142Z,4.87
2018-12-24T05:03:41.371Z,4.93
2018-12-24T05:06:10.661Z,5.27
2018-12-24T05:08:39.878Z,5.40
2018-12-24T05:11:09.116Z,4.47
2018-12-24T05:13:41.000Z,5.20
2018-12-24T05:16:09.178Z,4.93
2018-12-24T05:18:38.440Z,4.47
2018-12-24T05:21:07.679Z,4.70
2018-12-24T05:23:36.822Z,4.23
2018-12-24T05:26:06.056Z,4.47
2018-12-24T05:28:35.238Z,4.47
2018-12-24T05:31:04.461Z,4.47
2018-12-24T05:33:33.673Z,4.37
2018-12-24T05:36:02.867Z,4.27
2018-12-24T05:38:32.116Z,4.50
2018-12-24T05:41:01.338Z,4.73
2018-12-24T05:43:30.446Z,4.30
2018-12-24T05:45:59.679Z,4.63
2018-12-24T05:48:29.192Z,4.67
2018-12-24T05:50:58.370Z,4.60
2018-12-24T05:53:27.598Z,4.23
2018-12-24T05:55:56.854Z,3.77
2018-12-24T05:58:26.084Z,3.93
2018-12-24T06:00:55.286Z,4.00
2018-12-24T06:03:24.527Z,3.93
2018-12-24T06:05:53.769Z,4.10
2018-12-24T06:08:22.986Z,4.00
2018-12-24T06:10:54.597Z,4.23
2018-12-24T06:13:23.804Z,3.97
2018-12-24T06:15:53.027Z,3.87
2018-12-24T06:18:22.237Z,3.97
2018-12-24T06:20:51.462Z,3.83
2018-12-24T06:23:20.694Z,3.40
2018-12-24T06:25:49.841Z,3.80
2018-12-24T06:28:19.023Z,3.93
2018-12-24T06:30:48.658Z,4.13
2018-12-24T06:33:17.832Z,4.20
2018-12-24T06:35:47.039Z,4.30
2018-12-24T06:38:16.282Z,4.30
2018-12-24T06:40:45.446Z,4.10
2018-12-24T06:43:14.645Z,3.97
2018-12-24T06:45:43.902Z,3.33
2018-12-24T06:48:13.083Z,3.20
2018-12-24T06:50:42.289Z,3.47
2018-12-24T06:53:11.494Z,3.33
2018-12-24T06:55:40.930Z,3.37
2018-12-24T06:58:10.185Z,3.50
2018-12-24T07:00:39.403Z,3.73
2018-12-24T07:03:08.635Z,3.53
2018-12-24T07:05:37.853Z,3.53
2018-12-24T07:08:07.051Z,3.57
2018-12-24T07:10:36.904Z,3.40
2018-12-24T07:13:06.140Z,3.53
2018-12-24T07:15:35.348Z,3.20
2018-12-24T07:18:04.641Z,3.40
2018-12-24T07:20:33.849Z,3.40
2018-12-24T07:23:02.974Z,3.10
2018-12-24T07:25:32.210Z,3.53
2018-12-24T07:28:01.445Z,3.70
2018-12-24T07:30:30.606Z,3.07
2018-12-24T07:32:59.869Z,3.60
2018-12-24T07:35:29.070Z,3.63
2018-12-24T07:37:58.285Z,3.53
2018-12-24T07:40:28.520Z,3.43
2018-12-24T07:42:59.336Z,3.37
2018-12-24T07:45:28.730Z,3.40
2018-12-24T07:47:58.294Z,2.93
2018-12-24T07:50:27.675Z,3.23
2018-12-24T07:52:57.382Z,3.03
2018-12-24T07:55:26.817Z,3.33
2018-12-24T07:57:56.415Z,3.20
2018-12-24T08:00:26.091Z,3.43
2018-12-24T08:02:55.398Z,3.70
2018-12-24T08:05:24.669Z,3.60
2018-12-24T08:07:53.838Z,4.57
2018-12-24T08:10:23.101Z,4.10
2018-12-24T08:12:52.337Z,4.17
2018-12-24T08:15:21.521Z,4.83
2018-12-24T08:17:50.776Z,4.67
2018-12-24T08:20:19.983Z,4.80
2018-12-24T08:22:49.214Z,4.37
2018-12-24T08:25:18.403Z,5.83
2018-12-24T08:27:47.604Z,5.20
2018-12-24T08:30:16.829Z,5.30
2018-12-24T08:32:46.102Z,6.40
2018-12-24T08:35:15.655Z,5.20
2018-12-24T08:37:44.785Z,5.77
2018-12-24T08:40:14.007Z,5.00
2018-12-24T08:42:43.255Z,5.10
2018-12-24T08:45:12.484Z,5.30
2018-12-24T08:47:41.732Z,6.17
2018-12-24T08:50:11.225Z,5.80
2018-12-24T08:52:40.518Z,6.10
2018-12-24T08:55:09.714Z,5.33
2018-12-24T08:57:39.010Z,5.80
2018-12-24T09:00:08.245Z,5.73
2018-12-24T09:02:37.463Z,5.60
2018-12-24T09:05:06.654Z,4.97
2018-12-24T09:07:36.244Z,5.20
2018-12-24T09:10:05.485Z,5.83
2018-12-24T09:12:34.736Z,5.43
2018-12-24T09:15:03.938Z,5.20
2018-12-24T09:17:35.106Z,5.80
2018-12-24T09:20:04.098Z,6.53
2018-12-24T09:22:33.350Z,6.00
2018-12-24T09:25:02.613Z,5.70
2018-12-24T09:27:31.801Z,8.20
2018-12-24T09:30:00.960Z,7.13
2018-12-24T09:32:30.182Z,6.60
2018-12-24T09:34:59.364Z,8.03
2018-12-24T09:37:28.588Z,9.53
2018-12-24T09:39:57.759Z,10.03
2018-12-24T09:42:27.019Z,11.43
2018-12-24T09:44:59.054Z,11.33
2018-12-24T09:47:27.085Z,9.60
2018-12-24T09:49:56.302Z,11.87
2018-12-24T09:52:25.522Z,13.47
2018-12-24T09:54:55.223Z,11.47
2018-12-24T09:57:24.456Z,11.37
2018-12-24T09:59:53.665Z,11.90
2018-12-24T10:02:29.125Z,10.67
2018-12-24T10:04:58.306Z,10.67
2018-12-24T10:07:40.778Z,9.60
2018-12-24T10:10:12.944Z,9.37
2018-12-24T10:12:42.210Z,10.07
2018-12-24T10:15:11.437Z,8.80
2018-12-24T10:17:40.957Z,9.23
2018-12-24T10:20:10.615Z,10.60
2018-12-24T10:22:39.921Z,9.50
2018-12-24T10:25:09.081Z,9.80
2018-12-24T10:27:38.338Z,8.73
2018-12-24T10:30:07.997Z,9.10
2018-12-24T10:32:37.242Z,9.77
2018-12-24T10:35:06.629Z,8.97
2018-12-24T10:37:35.811Z,8.27
2018-12-24T10:40:11.419Z,9.30
2018-12-24T10:42:40.657Z,8.17
2018-12-24T10:45:16.408Z,7.70
2018-12-24T10:47:40.790Z,8.27
2018-12-24T10:50:09.938Z,8.60
2018-12-24T10:52:39.125Z,8.27
2018-12-24T10:55:08.334Z,8.47
2018-12-24T10:57:37.570Z,9.03
2018-12-24T11:00:09.052Z,8.97
2018-12-24T11:02:38.325Z,9.07
2018-12-24T11:05:07.518Z,8.10
2018-12-24T11:07:36.748Z,7.50
2018-12-24T11:10:09.314Z,7.60
2018-12-24T11:12:38.539Z,8.40
2018-12-24T11:15:09.641Z,8.10
2018-12-24T11:17:38.842Z,7.87
2018-12-24T11:20:08.566Z,7.63
2018-12-24T11:22:37.830Z,8.67
2018-12-24T11:25:08.862Z,8.30
2018-12-24T11:27:38.106Z,7.97
2018-12-24T11:30:08.402Z,9.37
2018-12-24T11:32:37.606Z,9.77
2018-12-24T11:35:06.893Z,9.53
2018-12-24T11:37:36.063Z,9.07
2018-12-24T11:40:05.561Z,9.90
2018-12-24T11:42:34.781Z,10.07
2018-12-24T11:45:03.978Z,8.90
2018-12-24T11:47:33.190Z,9.73
2018-12-24T11:50:02.831Z,11.70
2018-12-24T11:52:32.046Z,9.37
2018-12-24T11:55:01.687Z,11.27
2018-12-24T11:57:30.904Z,10.27
2018-12-24T12:00:00.195Z,11.13
2018-12-24T12:02:29.399Z,12.27
2018-12-24T12:04:58.615Z,10.83
2018-12-24T12:07:27.825Z,13.87
2018-12-24T12:09:57.071Z,10.70
2018-12-24T12:12:26.307Z,12.37
2018-12-24T12:14:55.589Z,11.50
2018-12-24T12:17:24.850Z,13.00
2018-12-24T12:19:54.185Z,12.43
2018-12-24T12:22:23.454Z,10.60
2018-12-24T12:24:52.689Z,12.53
2018-12-24T12:27:22.299Z,15.53
2018-12-24T12:29:51.474Z,14.63
2018-12-24T12:32:20.710Z,17.53
2018-12-24T12:34:50.028Z,16.57
2018-12-24T12:37:19.310Z,15.23
2018-12-24T12:39:48.545Z,15.47
2018-12-24T12:42:17.835Z,16.47
2018-12-24T12:44:46.976Z,16.73
2018-12-24T12:47:17.296Z,15.10
2018-12-24T12:49:46.511Z,13.63
2018-12-24T12:52:15.679Z,13.03
2018-12-24T12:54:44.907Z,14.37
2018-12-24T12:57:14.150Z,14.30
2018-12-24T12:59:43.415Z,13.93
2018-12-24T13:02:12.646Z,14.70
2018-12-24T13:04:41.897Z,13.63
2018-12-24T13:07:11.160Z,13.03
2018-12-24T13:09:40.386Z,12.17
2018-12-24T13:12:09.623Z,11.33
2018-12-24T13:14:38.885Z,11.77
2018-12-24T13:17:08.101Z,10.13
2018-12-24T13:19:37.312Z,10.37
2018-12-24T13:22:06.593Z,11.00
2018-12-24T13:24:40.316Z,11.67
2018-12-24T13:27:09.620Z,10.60
2018-12-24T13:29:38.842Z,13.37
2018-12-24T13:32:08.057Z,12.13
2018-12-24T13:34:37.271Z,12.00
2018-12-24T13:37:06.438Z,17.83
2018-12-24T13:39:35.716Z,18.10
2018-12-24T13:42:04.904Z,19.57
2018-12-24T13:44:34.115Z,14.80
2018-12-24T13:47:03.313Z,10.47
2018-12-24T13:49:33.658Z,12.37
2018-12-24T13:52:02.922Z,13.10
2018-12-24T13:54:32.305Z,11.60
2018-12-24T13:57:01.477Z,10.83
2018-12-24T13:59:30.667Z,10.67
2018-12-24T14:01:59.861Z,11.17
2018-12-24T14:04:29.025Z,9.93
2018-12-24T14:06:58.281Z,10.20
2018-12-24T14:09:27.470Z,9.97
2018-12-24T14:11:56.594Z,9.33
2018-12-24T14:14:25.858Z,11.00
2018-12-24T14:16:55.500Z,10.00
2018-12-24T14:19:24.741Z,10.83
2018-12-24T14:21:53.945Z,10.43
2018-12-24T14:24:23.154Z,8.57
2018-12-24T14:26:52.474Z,9.87
2018-12-24T14:29:21.610Z,8.67
2018-12-24T14:31:50.797Z,10.50
2018-12-24T14:34:19.942Z,10.37
2018-12-24T14:36:49.167Z,10.13
2018-12-24T14:39:18.853Z,9.93
2018-12-24T14:41:48.113Z,10.03
2018-12-24T14:44:17.247Z,9.10
2018-12-24T14:46:46.436Z,10.00
2018-12-24T14:49:15.660Z,9.37
2018-12-24T14:51:44.885Z,9.57
2018-12-24T14:54:14.099Z,9.53
2018-12-24T14:56:43.273Z,9.33
2018-12-24T14:59:12.538Z,8.87
2018-12-24T15:01:41.741Z,8.53
2018-12-24T15:04:10.939Z,9.57
2018-12-24T15:06:40.108Z,9.00
2018-12-24T15:09:09.342Z,9.30
2018-12-24T15:11:38.579Z,8.77
2018-12-24T15:14:07.781Z,8.90
2018-12-24T15:16:37.061Z,8.93
2018-12-24T15:19:06.371Z,8.20
2018-12-24T15:21:35.591Z,8.57
2018-12-24T15:24:04.866Z,8.60
2018-12-24T15:26:34.155Z,8.97
2018-12-24T15:29:03.374Z,7.97
2018-12-24T15:31:32.585Z,8.67
2018-12-24T15:34:01.794Z,7.87
2018-12-24T15:36:32.251Z,8.80
2018-12-24T15:39:01.567Z,8.07
2018-12-24T15:41:30.770Z,8.10
2018-12-24T15:43:59.973Z,8.23
2018-12-24T15:46:29.203Z,7.40
2018-12-24T15:48:58.420Z,8.27
2018-12-24T15:51:27.672Z,7.90
2018-12-24T15:53:56.863Z,7.23
2018-12-24T15:56:26.143Z,7.57
2018-12-24T15:58:55.315Z,6.70
2018-12-24T16:01:24.506Z,7.10
2018-12-24T16:03:53.729Z,6.87
2018-12-24T16:06:22.993Z,7.37
2018-12-24T16:08:52.202Z,7.50
2018-12-24T16:11:21.427Z,7.43
2018-12-24T16:13:50.602Z,7.73
2018-12-24T16:16:19.861Z,6.97
2018-12-24T16:18:49.083Z,7.20
2018-12-24T16:21:18.282Z,7.30
2018-12-24T16:23:47.540Z,7.40
2018-12-24T16:26:16.759Z,7.17
2018-12-24T16:28:45.976Z,7.20
2018-12-24T16:31:15.193Z,6.93
2018-12-24T16:33:44.374Z,5.97
2018-12-24T16:36:13.641Z,7.00
2018-12-24T16:38:42.833Z,6.70
2018-12-24T16:41:12.000Z,6.40
2018-12-24T16:43:41.270Z,6.47
2018-12-24T16:46:10.446Z,6.60
2018-12-24T16:48:39.670Z,6.70
2018-12-24T16:51:09.006Z,6.20
2018-12-24T16:53:40.612Z,5.90
2018-12-24T16:56:09.053Z,6.87
2018-12-24T16:58:38.339Z,6.00
2018-12-24T17:01:07.583Z,5.67
2018-12-24T17:03:36.996Z,6.10
2018-12-24T17:06:06.189Z,6.30
2018-12-24T17:08:35.321Z,5.57
2018-12-24T17:11:04.541Z,6.33
2018-12-24T17:13:33.781Z,5.40
2018-12-24T17:16:03.898Z,5.60
2018-12-24T17:18:33.190Z,5.60
2018-12-24T17:21:02.402Z,5.47
2018-12-24T17:23:31.606Z,5.67
2018-12-24T17:26:00.825Z,5.13
2018-12-24T17:28:30.023Z,5.23
2018-12-24T17:30:59.222Z,5.07
2018-12-24T17:33:28.377Z,5.43
2018-12-24T17:35:57.575Z,5.10
2018-12-24T17:38:26.782Z,4.90
2018-12-24T17:40:56.049Z,5.10
2018-12-24T17:43:25.239Z,4.83
2018-12-24T17:45:54.440Z,5.70
2018-12-24T17:48:23.671Z,5.20
2018-12-24T17:50:52.860Z,5.37
2018-12-24T17:53:22.061Z,4.97
2018-12-24T17:55:51.293Z,4.30
2018-12-24T17:58:20.521Z,5.30
2018-12-24T18:00:49.729Z,5.10
2018-12-24T18:03:18.954Z,4.50
2018-12-24T18:05:48.078Z,4.67
2018-12-24T18:08:17.281Z,5.43
2018-12-24T18:10:46.466Z,4.90
2018-12-24T18:13:15.627Z,4.37
2018-12-24T18:15:44.867Z,4.83
2018-12-24T18:18:14.055Z,5.03
2018-12-24T18:20:43.284Z,4.60
2018-12-24T18:23:12.546Z,4.83
2018-12-24T18:25:41.774Z,4.60
2018-12-24T18:28:11.122Z,4.80
2018-12-24T18:30:40.293Z,4.60
2018-12-24T18:33:09.502Z,5.30
2018-12-24T18:35:38.734Z,4.50
2018-12-24T18:38:07.940Z,4.37
2018-12-24T18:40:37.138Z,4.23
2018-12-24T18:43:06.380Z,4.73
2018-12-24T18:45:35.597Z,4.47
2018-12-24T18:48:04.807Z,4.57
2018-12-24T18:50:34.150Z,3.90
2018-12-24T18:53:03.333Z,4.83
2018-12-24T18:55:32.920Z,4.40
2018-12-24T18:58:02.498Z,4.20
2018-12-24T19:00:31.701Z,4.63
2018-12-24T19:03:00.937Z,4.17
2018-12-24T19:05:30.154Z,3.83
2018-12-24T19:07:59.313Z,4.60
2018-12-24T19:10:28.520Z,3.93
2018-12-24T19:12:58.075Z,4.20
2018-12-24T19:15:27.294Z,3.57
2018-12-24T19:17:56.517Z,3.53
2018-12-24T19:20:25.705Z,4.40
2018-12-24T19:22:54.947Z,4.20
2018-12-24T19:25:24.169Z,3.93
2018-12-24T19:27:53.428Z,3.60
2018-12-24T19:30:22.604Z,3.60
2018-12-24T19:32:51.841Z,3.60
2018-12-24T19:35:21.046Z,3.40
2018-12-24T19:37:50.209Z,3.80
2018-12-24T19:40:19.428Z,3.93
2018-12-24T19:42:48.721Z,3.60
2018-12-24T19:45:17.949Z,3.53
2018-12-24T19:47:49.980Z,3.93
2018-12-24T19:50:18.008Z,3.50
2018-12-24T19:52:47.290Z,3.70
2018-12-24T19:55:16.451Z,3.83
2018-12-24T19:57:45.674Z,3.83
2018-12-24T20:00:14.892Z,3.73
2018-12-24T20:02:44.093Z,3.40
2018-12-24T20:05:13.357Z,3.70
2018-12-24T20:07:42.552Z,3.40
2018-12-24T20:10:11.751Z,3.17
2018-12-24T20:12:40.975Z,3.57
2018-12-24T20:15:10.191Z,3.40
2018-12-24T20:17:39.477Z,2.80
2018-12-24T20:20:09.053Z,3.20
2018-12-24T20:22:38.335Z,3.00
2018-12-24T20:25:07.577Z,3.43
2018-12-24T20:27:36.770Z,3.00
2018-12-24T20:30:06.036Z,3.30
2018-12-24T20:32:35.198Z,3.37
2018-12-24T20:35:04.349Z,3.47
2018-12-24T20:37:33.535Z,3.70
2018-12-24T20:40:02.731Z,4.07
2018-12-24T20:42:31.957Z,3.97
2018-12-24T20:45:01.407Z,3.43
2018-12-24T20:47:30.613Z,4.10
2018-12-24T20:49:59.853Z,3.70
2018-12-24T20:52:29.067Z,4.30
2018-12-24T20:54:58.283Z,3.37
2018-12-24T20:57:27.488Z,3.53
2018-12-24T20:59:56.682Z,4.50
2018-12-24T21:02:25.874Z,3.50
2018-12-24T21:04:55.090Z,4.10
2018-12-24T21:07:24.273Z,3.50
2018-12-24T21:09:53.477Z,3.60
2018-12-24T21:12:22.811Z,4.10
2018-12-24T21:14:52.340Z,4.63
2018-12-24T21:17:21.558Z,4.10
2018-12-24T21:19:50.762Z,4.23
2018-12-24T21:22:20.313Z,6.50
2018-12-24T21:24:49.506Z,12.53
2018-12-24T21:27:18.770Z,11.90
2018-12-24T21:29:48.047Z,15.20
2018-12-24T21:32:17.242Z,18.60
2018-12-24T21:34:46.584Z,11.63
2018-12-24T21:37:16.234Z,12.13
2018-12-24T21:39:45.438Z,12.77
2018-12-24T21:42:14.706Z,12.13
2018-12-24T21:44:44.294Z,10.50
2018-12-24T21:47:13.509Z,11.37
2018-12-24T21:49:42.777Z,8.30
2018-12-24T21:52:11.991Z,8.50
2018-12-24T21:54:41.227Z,10.10
2018-12-24T21:57:10.450Z,9.10
2018-12-24T21:59:39.685Z,9.40
2018-12-24T22:02:08.820Z,9.20
2018-12-24T22:04:37.992Z,9.10
2018-12-24T22:07:07.173Z,8.60
2018-12-24T22:09:36.401Z,11.20
2018-12-24T22:12:05.617Z,10.87
2018-12-24T22:14:34.929Z,11.90
2018-12-24T22:17:04.138Z,14.50
2018-12-24T22:19:33.294Z,12.80
2018-12-24T22:22:02.644Z,10.73
2018-12-24T22:24:31.862Z,10.07
2018-12-24T22:27:01.018Z,8.17
2018-12-24T22:29:30.319Z,7.73
2018-12-24T22:31:59.554Z,8.43
2018-12-24T22:34:28.777Z,9.73
2018-12-24T22:36:58.090Z,10.43
2018-12-24T22:39:27.211Z,12.87
2018-12-24T22:41:56.421Z,11.17
2018-12-24T22:44:25.708Z,11.97
2018-12-24T22:46:54.963Z,11.47
2018-12-24T22:49:24.184Z,12.30
2018-12-24T22:51:53.446Z,11.30
2018-12-24T22:54:22.662Z,11.00
2018-12-24T22:56:51.882Z,11.53
2018-12-24T22:59:21.093Z,10.63
2018-12-24T23:01:50.305Z,11.50
2018-12-24T23:04:19.550Z,10.63
2018-12-24T23:06:48.770Z,11.63
2018-12-24T23:09:17.995Z,10.80
2018-12-24T23:11:47.213Z,9.50
2018-12-24T23:14:16.406Z,10.97
2018-12-24T23:16:45.626Z,11.70
2018-12-24T23:19:14.911Z,11.20
2018-12-24T23:21:44.113Z,10.63
2018-12-24T23:24:13.346Z,11.57
2018-12-24T23:26:42.702Z,10.33
2018-12-24T23:29:11.971Z,10.10
2018-12-24T23:31:41.228Z,9.40
2018-12-24T23:34:10.523Z,9.63
2018-12-24T23:36:39.834Z,11.23
2018-12-24T23:39:09.159Z,11.50
2018-12-24T23:41:38.445Z,10.50
2018-12-24T23:44:07.762Z,10.70
2018-12-24T23:46:37.122Z,12.03
2018-12-24T23:49:06.337Z,10.90
2018-12-24T23:51:35.580Z,10.30
2018-12-24T23:54:04.802Z,10.50
2018-12-24T23:56:34.003Z,11.10
2018-12-24T23:59:03.522Z,12.33
